sensor_id;sensor_type;location;lat;lon;timestamp;temperature;humidity
9219;DHT22;4644;48.858;9.184;2023-12-14T00:01:01;5.90;99.90
9219;DHT22;4644;48.858;9.184;2023-12-14T00:03:28;5.90;99.90
9219;DHT22;4644;48.858;9.184;2023-12-14T00:05:56;5.90;99.90
9219;DHT22;4644;48.858;9.184;2023-12-14T00:08:23;6.00;99.90
9219;DHT22;4644;48.858;9.184;2023-12-14T00:10:50;5.90;99.90
9219;DHT22;4644;48.858;9.184;2023-12-14T00:13:17;5.90;99.90
9219;DHT22;4644;48.858;9.184;2023-12-14T00:15:44;5.90;99.90
9219;DHT22;4644;48.858;9.184;2023-12-14T00:18:11;5.90;99.90
9219;DHT22;4644;48.858;9.184;2023-12-14T00:20:38;5.90;99.90
9219;DHT22;4644;48.858;9.184;2023-12-14T00:23:06;5.90;99.90
9219;DHT22;4644;48.858;9.184;2023-12-14T00:25:33;5.90;99.90
9219;DHT22;4644;48.858;9.184;2023-12-14T00:28:00;6.00;99.90
9219;DHT22;4644;48.858;9.184;2023-12-14T00:30:27;5.90;99.90
9219;DHT22;4644;48.858;9.184;2023-12-14T00:32:54;6.00;99.90
9219;DHT22;4644;48.858;9.184;2023-12-14T00:35:21;6.00;99.90
9219;DHT22;4644;48.858;9.184;2023-12-14T00:37:48;6.00;99.90
9219;DHT22;4644;48.858;9.184;2023-12-14T00:40:16;6.00;99.90
9219;DHT22;4644;48.858;9.184;2023-12-14T00:42:43;5.90;99.90
9219;DHT22;4644;48.858;9.184;2023-12-14T00:45:10;6.00;99.90
9219;DHT22;4644;48.858;9.184;2023-12-14T00:47:37;5.90;99.90
9219;DHT22;4644;48.858;9.184;2023-12-14T00:50:05;6.00;99.90
9219;DHT22;4644;48.858;9.184;2023-12-14T00:52:32;5.90;99.90
9219;DHT22;4644;48.858;9.184;2023-12-14T00:54:59;6.00;99.90
9219;DHT22;4644;48.858;9.184;2023-12-14T00:57:27;5.90;99.90
9219;DHT22;4644;48.858;9.184;2023-12-14T00:59:54;6.00;99.90
9219;DHT22;4644;48.858;9.184;2023-12-14T01:02:21;6.00;99.90
9219;DHT22;4644;48.858;9.184;2023-12-14T01:04:48;6.00;99.90
9219;DHT22;4644;48.858;9.184;2023-12-14T01:07:15;6.10;99.90
9219;DHT22;4644;48.858;9.184;2023-12-14T01:09:44;6.10;99.90
9219;DHT22;4644;48.858;9.184;2023-12-14T01:12:11;6.10;99.90
9219;DHT22;4644;48.858;9.184;2023-12-14T01:14:40;6.00;99.90
9219;DHT22;4644;48.858;9.184;2023-12-14T01:17:07;6.00;99.90
9219;DHT22;4644;48.858;9.184;2023-12-14T01:19:34;6.00;99.90
9219;DHT22;4644;48.858;9.184;2023-12-14T01:22:01;6.00;99.90
9219;DHT22;4644;48.858;9.184;2023-12-14T01:24:28;6.00;99.90
9219;DHT22;4644;48.858;9.184;2023-12-14T01:26:55;6.00;99.90
9219;DHT22;4644;48.858;9.184;2023-12-14T01:29:22;6.00;99.90
9219;DHT22;4644;48.858;9.184;2023-12-14T01:31:50;6.00;99.90
9219;DHT22;4644;48.858;9.184;2023-12-14T01:34:17;6.10;99.90
9219;DHT22;4644;48.858;9.184;2023-12-14T01:36:44;6.00;99.90
9219;DHT22;4644;48.858;9.184;2023-12-14T01:39:11;6.00;99.90
9219;DHT22;4644;48.858;9.184;2023-12-14T01:41:38;6.10;99.90
9219;DHT22;4644;48.858;9.184;2023-12-14T01:44:05;6.00;99.90
9219;DHT22;4644;48.858;9.184;2023-12-14T01:46:32;6.00;99.90
9219;DHT22;4644;48.858;9.184;2023-12-14T01:49:00;6.10;99.90
9219;DHT22;4644;48.858;9.184;2023-12-14T01:51:27;6.10;99.90
9219;DHT22;4644;48.858;9.184;2023-12-14T01:53:54;6.10;99.90
9219;DHT22;4644;48.858;9.184;2023-12-14T01:56:21;6.10;99.90
9219;DHT22;4644;48.858;9.184;2023-12-14T01:58:48;6.10;99.90
9219;DHT22;4644;48.858;9.184;2023-12-14T02:01:20;6.10;99.90
9219;DHT22;4644;48.858;9.184;2023-12-14T02:03:50;6.10;99.90
9219;DHT22;4644;48.858;9.184;2023-12-14T02:06:19;6.10;99.90
9219;DHT22;4644;48.858;9.184;2023-12-14T02:08:46;6.10;99.90
9219;DHT22;4644;48.858;9.184;2023-12-14T02:11:13;6.10;99.90
9219;DHT22;4644;48.858;9.184;2023-12-14T02:13:40;6.10;99.90
9219;DHT22;4644;48.858;9.184;2023-12-14T02:16:08;6.10;99.90
9219;DHT22;4644;48.858;9.184;2023-12-14T02:18:35;6.20;99.90
9219;DHT22;4644;48.858;9.184;2023-12-14T02:21:02;6.10;99.90
9219;DHT22;4644;48.858;9.184;2023-12-14T02:23:30;6.10;99.90
9219;DHT22;4644;48.858;9.184;2023-12-14T02:25:57;6.10;99.90
9219;DHT22;4644;48.858;9.184;2023-12-14T02:28:24;6.10;99.90
9219;DHT22;4644;48.858;9.184;2023-12-14T02:30:50;6.10;99.90
9219;DHT22;4644;48.858;9.184;2023-12-14T02:33:17;6.10;99.90
9219;DHT22;4644;48.858;9.184;2023-12-14T02:35:44;6.10;99.90
9219;DHT22;4644;48.858;9.184;2023-12-14T02:38:11;6.10;99.90
9219;DHT22;4644;48.858;9.184;2023-12-14T02:40:39;6.10;99.90
9219;DHT22;4644;48.858;9.184;2023-12-14T02:43:08;6.10;99.90
9219;DHT22;4644;48.858;9.184;2023-12-14T02:45:35;6.10;99.90
9219;DHT22;4644;48.858;9.184;2023-12-14T02:48:02;6.00;99.90
9219;DHT22;4644;48.858;9.184;2023-12-14T02:50:29;5.90;99.90
9219;DHT22;4644;48.858;9.184;2023-12-14T02:52:56;5.90;99.90
9219;DHT22;4644;48.858;9.184;2023-12-14T02:55:22;5.90;99.90
9219;DHT22;4644;48.858;9.184;2023-12-14T02:57:51;5.90;99.90
9219;DHT22;4644;48.858;9.184;2023-12-14T03:00:18;5.90;99.90
9219;DHT22;4644;48.858;9.184;2023-12-14T03:02:45;5.80;99.90
9219;DHT22;4644;48.858;9.184;2023-12-14T03:05:12;5.80;99.90
9219;DHT22;4644;48.858;9.184;2023-12-14T03:07:39;5.80;99.90
9219;DHT22;4644;48.858;9.184;2023-12-14T03:10:07;5.80;99.90
9219;DHT22;4644;48.858;9.184;2023-12-14T03:12:34;5.80;99.90
9219;DHT22;4644;48.858;9.184;2023-12-14T03:15:03;5.80;99.90
9219;DHT22;4644;48.858;9.184;2023-12-14T03:17:30;5.80;99.90
9219;DHT22;4644;48.858;9.184;2023-12-14T03:19:57;5.80;99.90
9219;DHT22;4644;48.858;9.184;2023-12-14T03:22:24;5.90;99.90
9219;DHT22;4644;48.858;9.184;2023-12-14T03:24:51;5.90;99.90
9219;DHT22;4644;48.858;9.184;2023-12-14T03:27:18;5.80;99.90
9219;DHT22;4644;48.858;9.184;2023-12-14T03:29:45;5.80;99.90
9219;DHT22;4644;48.858;9.184;2023-12-14T03:32:13;5.90;99.90
9219;DHT22;4644;48.858;9.184;2023-12-14T03:34:41;5.80;99.90
9219;DHT22;4644;48.858;9.184;2023-12-14T03:37:08;5.80;99.90
9219;DHT22;4644;48.858;9.184;2023-12-14T03:39:34;5.80;99.90
9219;DHT22;4644;48.858;9.184;2023-12-14T03:42:01;5.90;99.90
9219;DHT22;4644;48.858;9.184;2023-12-14T03:44:28;5.90;99.90
9219;DHT22;4644;48.858;9.184;2023-12-14T03:46:55;5.90;99.90
9219;DHT22;4644;48.858;9.184;2023-12-14T03:49:25;5.90;99.90
9219;DHT22;4644;48.858;9.184;2023-12-14T03:51:51;5.90;99.90
9219;DHT22;4644;48.858;9.184;2023-12-14T03:54:18;5.90;99.90
9219;DHT22;4644;48.858;9.184;2023-12-14T03:56:45;5.90;99.90
9219;DHT22;4644;48.858;9.184;2023-12-14T03:59:12;5.90;99.90
9219;DHT22;4644;48.858;9.184;2023-12-14T04:01:40;5.90;99.90
9219;DHT22;4644;48.858;9.184;2023-12-14T04:04:07;5.90;99.90
9219;DHT22;4644;48.858;9.184;2023-12-14T04:06:35;5.90;99.90
9219;DHT22;4644;48.858;9.184;2023-12-14T04:09:02;5.90;99.90
9219;DHT22;4644;48.858;9.184;2023-12-14T04:11:29;5.90;99.90
9219;DHT22;4644;48.858;9.184;2023-12-14T04:13:56;6.00;99.90
9219;DHT22;4644;48.858;9.184;2023-12-14T04:16:23;6.00;99.90
9219;DHT22;4644;48.858;9.184;2023-12-14T04:18:50;5.90;99.90
9219;DHT22;4644;48.858;9.184;2023-12-14T04:21:17;5.90;99.90
9219;DHT22;4644;48.858;9.184;2023-12-14T04:23:45;6.00;99.90
9219;DHT22;4644;48.858;9.184;2023-12-14T04:26:12;5.90;99.90
9219;DHT22;4644;48.858;9.184;2023-12-14T04:28:40;6.00;99.90
9219;DHT22;4644;48.858;9.184;2023-12-14T04:31:09;6.00;99.90
9219;DHT22;4644;48.858;9.184;2023-12-14T04:33:36;6.00;99.90
9219;DHT22;4644;48.858;9.184;2023-12-14T04:36:04;6.00;99.90
9219;DHT22;4644;48.858;9.184;2023-12-14T04:38:31;6.00;99.90
9219;DHT22;4644;48.858;9.184;2023-12-14T04:40:59;6.00;99.90
9219;DHT22;4644;48.858;9.184;2023-12-14T04:43:26;6.00;99.90
9219;DHT22;4644;48.858;9.184;2023-12-14T04:45:55;6.00;99.90
9219;DHT22;4644;48.858;9.184;2023-12-14T04:48:22;6.00;99.90
9219;DHT22;4644;48.858;9.184;2023-12-14T04:50:49;6.00;99.90
9219;DHT22;4644;48.858;9.184;2023-12-14T04:53:16;6.00;99.90
9219;DHT22;4644;48.858;9.184;2023-12-14T04:55:42;6.00;99.90
9219;DHT22;4644;48.858;9.184;2023-12-14T04:58:11;6.00;99.90
9219;DHT22;4644;48.858;9.184;2023-12-14T05:00:38;5.90;99.90
9219;DHT22;4644;48.858;9.184;2023-12-14T05:03:05;5.90;99.90
9219;DHT22;4644;48.858;9.184;2023-12-14T05:05:32;5.90;99.90
9219;DHT22;4644;48.858;9.184;2023-12-14T05:07:58;5.90;99.90
9219;DHT22;4644;48.858;9.184;2023-12-14T05:10:26;5.90;99.90
9219;DHT22;4644;48.858;9.184;2023-12-14T05:12:53;5.90;99.90
9219;DHT22;4644;48.858;9.184;2023-12-14T05:15:21;5.90;99.90
9219;DHT22;4644;48.858;9.184;2023-12-14T05:17:48;5.90;99.90
9219;DHT22;4644;48.858;9.184;2023-12-14T05:20:15;5.90;99.90
9219;DHT22;4644;48.858;9.184;2023-12-14T05:22:42;5.90;99.90
9219;DHT22;4644;48.858;9.184;2023-12-14T05:25:09;5.90;99.90
9219;DHT22;4644;48.858;9.184;2023-12-14T05:27:36;5.90;99.90
9219;DHT22;4644;48.858;9.184;2023-12-14T05:30:03;6.00;99.90
9219;DHT22;4644;48.858;9.184;2023-12-14T05:32:32;6.00;99.90
9219;DHT22;4644;48.858;9.184;2023-12-14T05:34:59;6.00;99.90
9219;DHT22;4644;48.858;9.184;2023-12-14T05:37:26;6.00;99.90
9219;DHT22;4644;48.858;9.184;2023-12-14T05:39:53;5.90;99.90
9219;DHT22;4644;48.858;9.184;2023-12-14T05:42:20;6.00;99.90
9219;DHT22;4644;48.858;9.184;2023-12-14T05:44:47;5.90;99.90
9219;DHT22;4644;48.858;9.184;2023-12-14T05:47:14;5.90;99.90
9219;DHT22;4644;48.858;9.184;2023-12-14T05:49:43;5.90;99.90
9219;DHT22;4644;48.858;9.184;2023-12-14T05:52:10;5.90;99.90
9219;DHT22;4644;48.858;9.184;2023-12-14T05:54:38;5.90;99.90
9219;DHT22;4644;48.858;9.184;2023-12-14T05:57:05;5.90;99.90
9219;DHT22;4644;48.858;9.184;2023-12-14T05:59:32;5.90;99.90
9219;DHT22;4644;48.858;9.184;2023-12-14T06:02:00;5.90;99.90
9219;DHT22;4644;48.858;9.184;2023-12-14T06:04:27;5.90;99.90
9219;DHT22;4644;48.858;9.184;2023-12-14T06:06:56;5.90;99.90
9219;DHT22;4644;48.858;9.184;2023-12-14T06:09:23;6.00;99.90
9219;DHT22;4644;48.858;9.184;2023-12-14T06:11:57;6.00;99.90
9219;DHT22;4644;48.858;9.184;2023-12-14T06:14:24;6.00;99.90
9219;DHT22;4644;48.858;9.184;2023-12-14T06:16:51;6.00;99.90
9219;DHT22;4644;48.858;9.184;2023-12-14T06:19:18;6.00;99.90
9219;DHT22;4644;48.858;9.184;2023-12-14T06:21:45;6.00;99.90
9219;DHT22;4644;48.858;9.184;2023-12-14T06:24:14;6.00;99.90
9219;DHT22;4644;48.858;9.184;2023-12-14T06:26:41;6.00;99.90
9219;DHT22;4644;48.858;9.184;2023-12-14T06:29:08;6.00;99.90
9219;DHT22;4644;48.858;9.184;2023-12-14T06:31:35;6.00;99.90
9219;DHT22;4644;48.858;9.184;2023-12-14T06:34:02;6.00;99.90
9219;DHT22;4644;48.858;9.184;2023-12-14T06:36:30;6.00;99.90
9219;DHT22;4644;48.858;9.184;2023-12-14T06:38:57;6.00;99.90
9219;DHT22;4644;48.858;9.184;2023-12-14T06:41:26;6.00;99.90
9219;DHT22;4644;48.858;9.184;2023-12-14T06:43:54;6.10;99.90
9219;DHT22;4644;48.858;9.184;2023-12-14T06:46:21;6.00;99.90
9219;DHT22;4644;48.858;9.184;2023-12-14T06:48:48;6.00;99.90
9219;DHT22;4644;48.858;9.184;2023-12-14T06:51:16;6.10;99.90
9219;DHT22;4644;48.858;9.184;2023-12-14T06:53:43;6.10;99.90
9219;DHT22;4644;48.858;9.184;2023-12-14T06:56:11;6.10;99.90
9219;DHT22;4644;48.858;9.184;2023-12-14T06:58:41;6.10;99.90
9219;DHT22;4644;48.858;9.184;2023-12-14T07:01:12;6.10;99.90
9219;DHT22;4644;48.858;9.184;2023-12-14T07:03:40;6.10;99.90
9219;DHT22;4644;48.858;9.184;2023-12-14T07:06:12;6.10;99.90
9219;DHT22;4644;48.858;9.184;2023-12-14T07:08:39;6.10;99.90
9219;DHT22;4644;48.858;9.184;2023-12-14T07:11:06;6.10;99.90
9219;DHT22;4644;48.858;9.184;2023-12-14T07:13:33;6.10;99.90
9219;DHT22;4644;48.858;9.184;2023-12-14T07:16:05;6.10;99.90
9219;DHT22;4644;48.858;9.184;2023-12-14T07:18:33;6.10;99.90
9219;DHT22;4644;48.858;9.184;2023-12-14T07:21:00;6.10;99.90
9219;DHT22;4644;48.858;9.184;2023-12-14T07:23:27;6.10;99.90
9219;DHT22;4644;48.858;9.184;2023-12-14T07:25:54;6.20;99.90
9219;DHT22;4644;48.858;9.184;2023-12-14T07:28:21;6.20;99.90
9219;DHT22;4644;48.858;9.184;2023-12-14T07:30:49;6.20;99.90
9219;DHT22;4644;48.858;9.184;2023-12-14T07:33:17;6.20;99.90
9219;DHT22;4644;48.858;9.184;2023-12-14T07:35:44;6.20;99.90
9219;DHT22;4644;48.858;9.184;2023-12-14T07:38:11;6.30;99.90
9219;DHT22;4644;48.858;9.184;2023-12-14T07:40:39;6.30;99.90
9219;DHT22;4644;48.858;9.184;2023-12-14T07:43:06;6.30;99.90
9219;DHT22;4644;48.858;9.184;2023-12-14T07:45:33;6.30;99.90
9219;DHT22;4644;48.858;9.184;2023-12-14T07:48:00;6.30;99.90
9219;DHT22;4644;48.858;9.184;2023-12-14T07:50:29;6.30;99.90
9219;DHT22;4644;48.858;9.184;2023-12-14T07:52:56;6.40;99.90
9219;DHT22;4644;48.858;9.184;2023-12-14T07:55:23;6.40;99.90
9219;DHT22;4644;48.858;9.184;2023-12-14T07:57:50;6.40;99.90
9219;DHT22;4644;48.858;9.184;2023-12-14T08:00:17;6.50;99.90
9219;DHT22;4644;48.858;9.184;2023-12-14T08:02:44;6.50;99.90
9219;DHT22;4644;48.858;9.184;2023-12-14T08:05:11;6.50;99.90
9219;DHT22;4644;48.858;9.184;2023-12-14T08:07:40;6.50;99.90
9219;DHT22;4644;48.858;9.184;2023-12-14T08:10:07;6.60;99.90
9219;DHT22;4644;48.858;9.184;2023-12-14T08:12:34;6.60;99.90
9219;DHT22;4644;48.858;9.184;2023-12-14T08:15:01;6.60;99.90
9219;DHT22;4644;48.858;9.184;2023-12-14T08:17:28;6.60;99.90
9219;DHT22;4644;48.858;9.184;2023-12-14T08:19:55;6.60;99.90
9219;DHT22;4644;48.858;9.184;2023-12-14T08:22:22;6.50;99.90
9219;DHT22;4644;48.858;9.184;2023-12-14T08:24:51;6.60;99.90
9219;DHT22;4644;48.858;9.184;2023-12-14T08:27:18;6.60;99.90
9219;DHT22;4644;48.858;9.184;2023-12-14T08:29:45;6.60;99.90
9219;DHT22;4644;48.858;9.184;2023-12-14T08:32:12;6.50;99.90
9219;DHT22;4644;48.858;9.184;2023-12-14T08:34:40;6.50;99.90
9219;DHT22;4644;48.858;9.184;2023-12-14T08:37:07;6.60;99.90
9219;DHT22;4644;48.858;9.184;2023-12-14T08:39:34;6.60;99.90
9219;DHT22;4644;48.858;9.184;2023-12-14T08:42:03;6.60;99.90
9219;DHT22;4644;48.858;9.184;2023-12-14T08:44:30;6.70;99.90
9219;DHT22;4644;48.858;9.184;2023-12-14T08:46:57;6.70;99.90
9219;DHT22;4644;48.858;9.184;2023-12-14T08:49:24;6.70;99.90
9219;DHT22;4644;48.858;9.184;2023-12-14T08:51:51;6.70;99.90
9219;DHT22;4644;48.858;9.184;2023-12-14T08:54:18;6.80;99.90
9219;DHT22;4644;48.858;9.184;2023-12-14T08:56:45;6.90;99.90
9219;DHT22;4644;48.858;9.184;2023-12-14T08:59:13;6.90;99.90
9219;DHT22;4644;48.858;9.184;2023-12-14T09:01:40;7.00;99.90
9219;DHT22;4644;48.858;9.184;2023-12-14T09:04:07;7.10;99.90
9219;DHT22;4644;48.858;9.184;2023-12-14T09:06:34;7.20;99.90
9219;DHT22;4644;48.858;9.184;2023-12-14T09:09:01;7.10;99.90
9219;DHT22;4644;48.858;9.184;2023-12-14T09:11:28;7.00;99.90
9219;DHT22;4644;48.858;9.184;2023-12-14T09:13:55;7.00;99.90
9219;DHT22;4644;48.858;9.184;2023-12-14T09:16:23;7.10;99.90
9219;DHT22;4644;48.858;9.184;2023-12-14T09:18:50;7.10;99.90
9219;DHT22;4644;48.858;9.184;2023-12-14T09:21:17;7.10;99.90
9219;DHT22;4644;48.858;9.184;2023-12-14T09:23:44;7.10;99.90
9219;DHT22;4644;48.858;9.184;2023-12-14T09:26:11;7.10;99.90
9219;DHT22;4644;48.858;9.184;2023-12-14T09:28:38;7.10;99.90
9219;DHT22;4644;48.858;9.184;2023-12-14T09:31:06;7.10;99.90
9219;DHT22;4644;48.858;9.184;2023-12-14T09:33:34;7.10;99.90
9219;DHT22;4644;48.858;9.184;2023-12-14T09:36:01;7.10;99.90
9219;DHT22;4644;48.858;9.184;2023-12-14T09:38:28;7.20;99.90
9219;DHT22;4644;48.858;9.184;2023-12-14T09:40:56;7.20;99.90
9219;DHT22;4644;48.858;9.184;2023-12-14T09:43:23;7.20;99.90
9219;DHT22;4644;48.858;9.184;2023-12-14T09:45:50;7.20;99.90
9219;DHT22;4644;48.858;9.184;2023-12-14T09:48:18;7.20;99.90
9219;DHT22;4644;48.858;9.184;2023-12-14T09:50:46;7.20;99.90
9219;DHT22;4644;48.858;9.184;2023-12-14T09:53:14;7.30;99.90
9219;DHT22;4644;48.858;9.184;2023-12-14T09:55:41;7.30;99.90
9219;DHT22;4644;48.858;9.184;2023-12-14T09:58:08;7.40;99.90
9219;DHT22;4644;48.858;9.184;2023-12-14T10:00:37;7.40;99.90
9219;DHT22;4644;48.858;9.184;2023-12-14T10:03:24;7.40;99.90
9219;DHT22;4644;48.858;9.184;2023-12-14T10:05:54;7.40;99.90
9219;DHT22;4644;48.858;9.184;2023-12-14T10:08:22;7.50;99.90
9219;DHT22;4644;48.858;9.184;2023-12-14T10:10:50;7.50;99.90
9219;DHT22;4644;48.858;9.184;2023-12-14T10:13:18;7.50;99.90
9219;DHT22;4644;48.858;9.184;2023-12-14T10:15:47;7.70;99.90
9219;DHT22;4644;48.858;9.184;2023-12-14T10:18:21;7.70;99.90
9219;DHT22;4644;48.858;9.184;2023-12-14T10:20:50;7.70;99.90
9219;DHT22;4644;48.858;9.184;2023-12-14T10:23:18;7.60;99.90
9219;DHT22;4644;48.858;9.184;2023-12-14T10:25:46;7.60;99.90
9219;DHT22;4644;48.858;9.184;2023-12-14T10:28:13;7.50;99.90
9219;DHT22;4644;48.858;9.184;2023-12-14T10:30:40;7.50;99.90
9219;DHT22;4644;48.858;9.184;2023-12-14T10:33:08;7.50;99.90
9219;DHT22;4644;48.858;9.184;2023-12-14T10:35:35;7.50;99.90
9219;DHT22;4644;48.858;9.184;2023-12-14T10:38:04;7.40;99.90
9219;DHT22;4644;48.858;9.184;2023-12-14T10:40:32;7.50;99.90
9219;DHT22;4644;48.858;9.184;2023-12-14T10:43:00;7.60;99.90
9219;DHT22;4644;48.858;9.184;2023-12-14T10:45:31;7.50;99.90
9219;DHT22;4644;48.858;9.184;2023-12-14T10:47:59;7.60;99.90
9219;DHT22;4644;48.858;9.184;2023-12-14T10:50:28;7.60;99.90
9219;DHT22;4644;48.858;9.184;2023-12-14T10:52:56;7.60;99.90
9219;DHT22;4644;48.858;9.184;2023-12-14T10:55:27;7.60;99.90
9219;DHT22;4644;48.858;9.184;2023-12-14T10:57:57;7.60;99.90
9219;DHT22;4644;48.858;9.184;2023-12-14T11:00:24;7.60;99.90
9219;DHT22;4644;48.858;9.184;2023-12-14T11:02:52;7.60;99.90
9219;DHT22;4644;48.858;9.184;2023-12-14T11:05:19;7.60;99.90
9219;DHT22;4644;48.858;9.184;2023-12-14T11:07:55;7.70;99.90
9219;DHT22;4644;48.858;9.184;2023-12-14T11:10:27;7.70;99.90
9219;DHT22;4644;48.858;9.184;2023-12-14T11:13:00;7.60;99.90
9219;DHT22;4644;48.858;9.184;2023-12-14T11:15:28;7.60;99.90
9219;DHT22;4644;48.858;9.184;2023-12-14T11:18:21;7.60;99.90
9219;DHT22;4644;48.858;9.184;2023-12-14T11:20:49;7.70;99.90
9219;DHT22;4644;48.858;9.184;2023-12-14T11:23:18;7.80;99.90
9219;DHT22;4644;48.858;9.184;2023-12-14T11:25:53;7.80;99.90
9219;DHT22;4644;48.858;9.184;2023-12-14T11:28:22;7.80;99.90
9219;DHT22;4644;48.858;9.184;2023-12-14T11:30:49;7.80;99.90
9219;DHT22;4644;48.858;9.184;2023-12-14T11:33:16;7.90;99.90
9219;DHT22;4644;48.858;9.184;2023-12-14T11:35:43;7.90;99.90
9219;DHT22;4644;48.858;9.184;2023-12-14T11:38:10;7.90;99.90
9219;DHT22;4644;48.858;9.184;2023-12-14T11:40:38;7.90;99.90
9219;DHT22;4644;48.858;9.184;2023-12-14T11:43:06;8.00;99.90
9219;DHT22;4644;48.858;9.184;2023-12-14T11:45:35;8.10;99.90
9219;DHT22;4644;48.858;9.184;2023-12-14T11:48:03;8.00;99.90
9219;DHT22;4644;48.858;9.184;2023-12-14T11:50:31;7.90;99.90
9219;DHT22;4644;48.858;9.184;2023-12-14T11:53:00;8.00;99.90
9219;DHT22;4644;48.858;9.184;2023-12-14T11:55:29;8.10;99.90
9219;DHT22;4644;48.858;9.184;2023-12-14T11:57:57;8.10;99.90
9219;DHT22;4644;48.858;9.184;2023-12-14T12:00:25;8.20;99.90
9219;DHT22;4644;48.858;9.184;2023-12-14T12:03:08;8.20;99.90
9219;DHT22;4644;48.858;9.184;2023-12-14T12:05:36;8.10;99.90
9219;DHT22;4644;48.858;9.184;2023-12-14T12:08:04;8.10;99.90
9219;DHT22;4644;48.858;9.184;2023-12-14T12:10:31;8.20;99.90
9219;DHT22;4644;48.858;9.184;2023-12-14T12:13:06;8.10;99.90
9219;DHT22;4644;48.858;9.184;2023-12-14T12:15:34;8.10;99.90
9219;DHT22;4644;48.858;9.184;2023-12-14T12:18:06;8.10;99.90
9219;DHT22;4644;48.858;9.184;2023-12-14T12:20:35;8.10;99.90
9219;DHT22;4644;48.858;9.184;2023-12-14T12:23:02;8.20;99.90
9219;DHT22;4644;48.858;9.184;2023-12-14T12:25:30;8.30;99.90
9219;DHT22;4644;48.858;9.184;2023-12-14T12:27:57;8.30;99.90
9219;DHT22;4644;48.858;9.184;2023-12-14T12:30:24;8.40;99.90
9219;DHT22;4644;48.858;9.184;2023-12-14T12:32:51;8.40;99.90
9219;DHT22;4644;48.858;9.184;2023-12-14T12:35:19;8.20;99.90
9219;DHT22;4644;48.858;9.184;2023-12-14T12:37:47;8.10;99.90
9219;DHT22;4644;48.858;9.184;2023-12-14T12:40:19;8.00;99.90
9219;DHT22;4644;48.858;9.184;2023-12-14T12:42:46;7.90;99.90
9219;DHT22;4644;48.858;9.184;2023-12-14T12:45:15;7.80;99.90
9219;DHT22;4644;48.858;9.184;2023-12-14T12:47:43;7.80;99.90
9219;DHT22;4644;48.858;9.184;2023-12-14T12:50:10;7.80;99.90
9219;DHT22;4644;48.858;9.184;2023-12-14T12:52:37;7.80;99.90
9219;DHT22;4644;48.858;9.184;2023-12-14T12:55:07;7.90;99.90
9219;DHT22;4644;48.858;9.184;2023-12-14T12:57:35;7.90;99.90
9219;DHT22;4644;48.858;9.184;2023-12-14T13:00:02;8.00;99.90
9219;DHT22;4644;48.858;9.184;2023-12-14T13:02:33;8.00;99.90
9219;DHT22;4644;48.858;9.184;2023-12-14T13:05:00;8.00;99.90
9219;DHT22;4644;48.858;9.184;2023-12-14T13:07:27;7.90;99.90
9219;DHT22;4644;48.858;9.184;2023-12-14T13:09:54;7.90;99.90
9219;DHT22;4644;48.858;9.184;2023-12-14T13:12:23;7.80;99.90
9219;DHT22;4644;48.858;9.184;2023-12-14T13:14:49;7.70;99.90
9219;DHT22;4644;48.858;9.184;2023-12-14T13:17:16;7.60;99.90
9219;DHT22;4644;48.858;9.184;2023-12-14T13:19:44;7.50;99.90
9219;DHT22;4644;48.858;9.184;2023-12-14T13:22:11;7.40;99.90
9219;DHT22;4644;48.858;9.184;2023-12-14T13:24:38;7.30;99.90
9219;DHT22;4644;48.858;9.184;2023-12-14T13:27:05;7.20;99.90
9219;DHT22;4644;48.858;9.184;2023-12-14T13:29:33;7.20;99.90
9219;DHT22;4644;48.858;9.184;2023-12-14T13:32:00;7.20;99.90
9219;DHT22;4644;48.858;9.184;2023-12-14T13:34:28;7.10;99.90
9219;DHT22;4644;48.858;9.184;2023-12-14T13:36:55;7.10;99.90
9219;DHT22;4644;48.858;9.184;2023-12-14T13:39:22;7.10;99.90
9219;DHT22;4644;48.858;9.184;2023-12-14T13:41:49;7.10;99.90
9219;DHT22;4644;48.858;9.184;2023-12-14T13:44:16;7.10;99.90
9219;DHT22;4644;48.858;9.184;2023-12-14T13:46:44;7.10;99.90
9219;DHT22;4644;48.858;9.184;2023-12-14T13:49:12;7.20;99.90
9219;DHT22;4644;48.858;9.184;2023-12-14T13:51:39;7.20;99.90
9219;DHT22;4644;48.858;9.184;2023-12-14T13:54:06;7.20;99.90
9219;DHT22;4644;48.858;9.184;2023-12-14T13:56:33;7.20;99.90
9219;DHT22;4644;48.858;9.184;2023-12-14T13:59:00;7.10;99.90
9219;DHT22;4644;48.858;9.184;2023-12-14T14:01:28;7.10;99.90
9219;DHT22;4644;48.858;9.184;2023-12-14T14:03:56;7.10;99.90
9219;DHT22;4644;48.858;9.184;2023-12-14T14:06:23;7.10;99.90
9219;DHT22;4644;48.858;9.184;2023-12-14T14:08:50;7.10;99.90
9219;DHT22;4644;48.858;9.184;2023-12-14T14:11:17;7.10;99.90
9219;DHT22;4644;48.858;9.184;2023-12-14T14:13:44;7.10;99.90
9219;DHT22;4644;48.858;9.184;2023-12-14T14:16:11;7.00;99.90
9219;DHT22;4644;48.858;9.184;2023-12-14T14:18:38;7.00;99.90
9219;DHT22;4644;48.858;9.184;2023-12-14T14:21:06;7.00;99.90
9219;DHT22;4644;48.858;9.184;2023-12-14T14:23:33;7.00;99.90
9219;DHT22;4644;48.858;9.184;2023-12-14T14:26:00;7.00;99.90
9219;DHT22;4644;48.858;9.184;2023-12-14T14:28:27;7.00;99.90
9219;DHT22;4644;48.858;9.184;2023-12-14T14:30:54;7.00;99.90
9219;DHT22;4644;48.858;9.184;2023-12-14T14:33:21;7.00;99.90
9219;DHT22;4644;48.858;9.184;2023-12-14T14:35:49;6.90;99.90
9219;DHT22;4644;48.858;9.184;2023-12-14T14:38:18;7.00;99.90
9219;DHT22;4644;48.858;9.184;2023-12-14T14:40:45;6.90;99.90
9219;DHT22;4644;48.858;9.184;2023-12-14T14:43:12;7.00;99.90
9219;DHT22;4644;48.858;9.184;2023-12-14T14:45:43;6.90;99.90
9219;DHT22;4644;48.858;9.184;2023-12-14T14:48:10;6.90;99.90
9219;DHT22;4644;48.858;9.184;2023-12-14T14:50:37;7.00;99.90
9219;DHT22;4644;48.858;9.184;2023-12-14T14:53:05;6.90;99.90
9219;DHT22;4644;48.858;9.184;2023-12-14T14:55:33;7.00;99.90
9219;DHT22;4644;48.858;9.184;2023-12-14T14:58:00;7.00;99.90
9219;DHT22;4644;48.858;9.184;2023-12-14T15:00:27;7.00;99.90
9219;DHT22;4644;48.858;9.184;2023-12-14T15:02:54;7.00;99.90
9219;DHT22;4644;48.858;9.184;2023-12-14T15:05:21;7.00;99.90
9219;DHT22;4644;48.858;9.184;2023-12-14T15:07:48;7.00;99.90
9219;DHT22;4644;48.858;9.184;2023-12-14T15:10:15;7.00;99.90
9219;DHT22;4644;48.858;9.184;2023-12-14T15:12:43;7.00;99.90
9219;DHT22;4644;48.858;9.184;2023-12-14T15:15:10;7.00;99.90
9219;DHT22;4644;48.858;9.184;2023-12-14T15:17:37;7.00;99.90
9219;DHT22;4644;48.858;9.184;2023-12-14T15:20:05;7.00;99.90
9219;DHT22;4644;48.858;9.184;2023-12-14T15:22:32;7.00;99.90
9219;DHT22;4644;48.858;9.184;2023-12-14T15:24:58;7.00;99.90
9219;DHT22;4644;48.858;9.184;2023-12-14T15:27:26;6.90;99.90
9219;DHT22;4644;48.858;9.184;2023-12-14T15:29:54;6.90;99.90
9219;DHT22;4644;48.858;9.184;2023-12-14T15:32:21;6.80;99.90
9219;DHT22;4644;48.858;9.184;2023-12-14T15:34:48;6.80;99.90
9219;DHT22;4644;48.858;9.184;2023-12-14T15:37:15;6.80;99.90
9219;DHT22;4644;48.858;9.184;2023-12-14T15:39:42;6.80;99.90
9219;DHT22;4644;48.858;9.184;2023-12-14T15:42:14;6.80;99.90
9219;DHT22;4644;48.858;9.184;2023-12-14T15:44:40;6.80;99.90
9219;DHT22;4644;48.858;9.184;2023-12-14T15:47:09;6.80;99.90
9219;DHT22;4644;48.858;9.184;2023-12-14T15:49:36;6.90;99.90
9219;DHT22;4644;48.858;9.184;2023-12-14T15:52:03;6.80;99.90
9219;DHT22;4644;48.858;9.184;2023-12-14T15:54:30;6.80;99.90
9219;DHT22;4644;48.858;9.184;2023-12-14T15:56:57;6.80;99.90
9219;DHT22;4644;48.858;9.184;2023-12-14T15:59:25;6.80;99.90
9219;DHT22;4644;48.858;9.184;2023-12-14T16:01:52;6.80;99.90
9219;DHT22;4644;48.858;9.184;2023-12-14T16:04:21;6.80;99.90
9219;DHT22;4644;48.858;9.184;2023-12-14T16:06:48;6.80;99.90
9219;DHT22;4644;48.858;9.184;2023-12-14T16:09:15;6.80;99.90
9219;DHT22;4644;48.858;9.184;2023-12-14T16:11:43;6.80;99.90
9219;DHT22;4644;48.858;9.184;2023-12-14T16:14:10;6.80;99.90
9219;DHT22;4644;48.858;9.184;2023-12-14T16:16:37;6.80;99.90
9219;DHT22;4644;48.858;9.184;2023-12-14T16:19:04;6.80;99.90